sensor_id;sensor_type;location;lat;lon;timestamp;pressure;altitude;pressure_sealevel;temperature;humidity
24610;BME280;12758;47.890;11.694;2023-04-02T00:00:04;93072.69;;;7.04;100.00
24610;BME280;12758;47.890;11.694;2023-04-02T00:02:46;93075.56;;;6.98;100.00
24610;BME280;12758;47.890;11.694;2023-04-02T00:05:29;93076.78;;;7.10;100.00
24610;BME280;12758;47.890;11.694;2023-04-02T00:07:59;93081.53;;;7.13;100.00
24610;BME280;12758;47.890;11.694;2023-04-02T00:10:32;93080.59;;;7.09;100.00
24610;BME280;12758;47.890;11.694;2023-04-02T00:13:04;93084.78;;;6.97;100.00
24610;BME280;12758;47.890;11.694;2023-04-02T00:15:31;93078.38;;;7.11;100.00
24610;BME280;12758;47.890;11.694;2023-04-02T00:18:01;93081.81;;;7.20;100.00
24610;BME280;12758;47.890;11.694;2023-04-02T00:20:32;93086.75;;;7.09;100.00
24610;BME280;12758;47.890;11.694;2023-04-02T00:23:04;93080.03;;;6.94;100.00
24610;BME280;12758;47.890;11.694;2023-04-02T00:25:33;93084.53;;;7.11;100.00
24610;BME280;12758;47.890;11.694;2023-04-02T00:28:03;93087.59;;;7.10;100.00
24610;BME280;12758;47.890;11.694;2023-04-02T00:30:29;93086.50;;;7.02;100.00
24610;BME280;12758;47.890;11.694;2023-04-02T00:32:55;93092.66;;;7.03;100.00
24610;BME280;12758;47.890;11.694;2023-04-02T00:35:25;93099.66;;;7.04;100.00
24610;BME280;12758;47.890;11.694;2023-04-02T00:37:54;93090.69;;;6.91;100.00
24610;BME280;12758;47.890;11.694;2023-04-02T00:40:25;93093.97;;;6.96;100.00
24610;BME280;12758;47.890;11.694;2023-04-02T00:42:55;93089.91;;;6.90;100.00
24610;BME280;12758;47.890;11.694;2023-04-02T00:45:27;93085.03;;;6.75;100.00
24610;BME280;12758;47.890;11.694;2023-04-02T00:47:54;93081.16;;;6.93;100.00
24610;BME280;12758;47.890;11.694;2023-04-02T00:50:27;93083.03;;;6.93;100.00
24610;BME280;12758;47.890;11.694;2023-04-02T00:52:56;93085.69;;;7.02;100.00
24610;BME280;12758;47.890;11.694;2023-04-02T00:55:31;93087.00;;;6.95;100.00
24610;BME280;12758;47.890;11.694;2023-04-02T00:58:00;93081.69;;;7.16;100.00
24610;BME280;12758;47.890;11.694;2023-04-02T01:00:31;93092.03;;;7.06;100.00
24610;BME280;12758;47.890;11.694;2023-04-02T01:03:25;93087.75;;;7.05;100.00
24610;BME280;12758;47.890;11.694;2023-04-02T01:05:57;93085.88;;;6.96;100.00
24610;BME280;12758;47.890;11.694;2023-04-02T01:08:30;93088.94;;;6.86;100.00
24610;BME280;12758;47.890;11.694;2023-04-02T01:11:06;93091.81;;;6.81;100.00
24610;BME280;12758;47.890;11.694;2023-04-02T01:13:36;93083.84;;;6.93;100.00
24610;BME280;12758;47.890;11.694;2023-04-02T01:16:09;93088.78;;;6.83;100.00
24610;BME280;12758;47.890;11.694;2023-04-02T01:18:45;93085.03;;;6.66;100.00
24610;BME280;12758;47.890;11.694;2023-04-02T01:21:23;93097.38;;;6.76;100.00
24610;BME280;12758;47.890;11.694;2023-04-02T01:23:59;93100.88;;;6.76;100.00
24610;BME280;12758;47.890;11.694;2023-04-02T01:26:35;93094.69;;;6.76;100.00
24610;BME280;12758;47.890;11.694;2023-04-02T01:29:08;93095.69;;;6.63;100.00
24610;BME280;12758;47.890;11.694;2023-04-02T01:31:39;93099.16;;;6.72;100.00
24610;BME280;12758;47.890;11.694;2023-04-02T01:34:07;93097.38;;;6.85;100.00
24610;BME280;12758;47.890;11.694;2023-04-02T01:36:40;93102.16;;;6.70;100.00
24610;BME280;12758;47.890;11.694;2023-04-02T01:39:15;93105.13;;;6.86;100.00
24610;BME280;12758;47.890;11.694;2023-04-02T01:41:47;93109.38;;;6.96;100.00
24610;BME280;12758;47.890;11.694;2023-04-02T01:44:17;93100.09;;;6.76;100.00
24610;BME280;12758;47.890;11.694;2023-04-02T01:46:49;93105.97;;;6.78;100.00
24610;BME280;12758;47.890;11.694;2023-04-02T01:49:17;93109.28;;;6.75;100.00
24610;BME280;12758;47.890;11.694;2023-04-02T01:51:50;93105.13;;;6.86;100.00
24610;BME280;12758;47.890;11.694;2023-04-02T01:54:17;93107.25;;;6.72;100.00
24610;BME280;12758;47.890;11.694;2023-04-02T01:56:47;93114.03;;;6.78;100.00
24610;BME280;12758;47.890;11.694;2023-04-02T01:59:17;93112.78;;;6.67;100.00
24610;BME280;12758;47.890;11.694;2023-04-02T02:01:49;93110.16;;;6.32;100.00
24610;BME280;12758;47.890;11.694;2023-04-02T02:04:17;93119.31;;;6.66;100.00
24610;BME280;12758;47.890;11.694;2023-04-02T02:06:46;93126.25;;;6.84;100.00
24610;BME280;12758;47.890;11.694;2023-04-02T02:09:14;93118.41;;;6.44;100.00
24610;BME280;12758;47.890;11.694;2023-04-02T02:11:45;93120.03;;;6.84;100.00
24610;BME280;12758;47.890;11.694;2023-04-02T02:14:13;93121.72;;;6.59;100.00
24610;BME280;12758;47.890;11.694;2023-04-02T02:16:44;93123.94;;;6.57;100.00
24610;BME280;12758;47.890;11.694;2023-04-02T02:19:18;93124.63;;;6.36;100.00
24610;BME280;12758;47.890;11.694;2023-04-02T02:21:49;93125.59;;;6.23;100.00
24610;BME280;12758;47.890;11.694;2023-04-02T02:24:18;93127.94;;;6.16;100.00
24610;BME280;12758;47.890;11.694;2023-04-02T02:26:49;93126.97;;;6.29;100.00
24610;BME280;12758;47.890;11.694;2023-04-02T02:29:17;93132.66;;;6.45;100.00
24610;BME280;12758;47.890;11.694;2023-04-02T02:31:48;93131.09;;;6.44;100.00
24610;BME280;12758;47.890;11.694;2023-04-02T02:34:21;93135.06;;;6.46;100.00
24610;BME280;12758;47.890;11.694;2023-04-02T02:36:57;93134.13;;;6.42;100.00
24610;BME280;12758;47.890;11.694;2023-04-02T02:39:30;93135.84;;;6.56;100.00
24610;BME280;12758;47.890;11.694;2023-04-02T02:42:03;93131.91;;;6.27;100.00
24610;BME280;12758;47.890;11.694;2023-04-02T02:44:34;93131.59;;;6.20;100.00
24610;BME280;12758;47.890;11.694;2023-04-02T02:47:08;93134.22;;;6.54;100.00
24610;BME280;12758;47.890;11.694;2023-04-02T02:49:38;93134.75;;;6.22;100.00
24610;BME280;12758;47.890;11.694;2023-04-02T02:52:13;93140.91;;;6.48;100.00
24610;BME280;12758;47.890;11.694;2023-04-02T02:54:42;93137.63;;;6.17;100.00
24610;BME280;12758;47.890;11.694;2023-04-02T02:57:14;93146.00;;;6.50;100.00
24610;BME280;12758;47.890;11.694;2023-04-02T02:59:43;93145.34;;;6.53;100.00
24610;BME280;12758;47.890;11.694;2023-04-02T03:02:13;93151.03;;;6.60;100.00
24610;BME280;12758;47.890;11.694;2023-04-02T03:04:46;93154.16;;;6.80;100.00
24610;BME280;12758;47.890;11.694;2023-04-02T03:07:15;93144.91;;;6.42;100.00
24610;BME280;12758;47.890;11.694;2023-04-02T03:09:47;93150.94;;;6.39;100.00
24610;BME280;12758;47.890;11.694;2023-04-02T03:12:31;93153.13;;;6.37;100.00
24610;BME280;12758;47.890;11.694;2023-04-02T03:15:01;93160.25;;;6.59;100.00
24610;BME280;12758;47.890;11.694;2023-04-02T03:17:33;93156.56;;;6.64;100.00
24610;BME280;12758;47.890;11.694;2023-04-02T03:20:02;93161.34;;;6.67;100.00
24610;BME280;12758;47.890;11.694;2023-04-02T03:22:36;93160.19;;;6.76;100.00
24610;BME280;12758;47.890;11.694;2023-04-02T03:25:06;93161.00;;;6.77;100.00
24610;BME280;12758;47.890;11.694;2023-04-02T03:27:40;93167.00;;;6.91;100.00
24610;BME280;12758;47.890;11.694;2023-04-02T03:30:24;93164.16;;;6.88;100.00
24610;BME280;12758;47.890;11.694;2023-04-02T03:32:58;93164.78;;;6.93;100.00
24610;BME280;12758;47.890;11.694;2023-04-02T03:35:28;93175.25;;;6.86;100.00
24610;BME280;12758;47.890;11.694;2023-04-02T03:38:01;93163.38;;;6.87;100.00
24610;BME280;12758;47.890;11.694;2023-04-02T03:40:30;93170.50;;;6.83;100.00
24610;BME280;12758;47.890;11.694;2023-04-02T03:43:03;93165.00;;;6.71;100.00
24610;BME280;12758;47.890;11.694;2023-04-02T03:45:37;93164.31;;;6.74;100.00
24610;BME280;12758;47.890;11.694;2023-04-02T03:48:10;93169.72;;;6.74;100.00
24610;BME280;12758;47.890;11.694;2023-04-02T03:50:41;93171.19;;;6.54;100.00
24610;BME280;12758;47.890;11.694;2023-04-02T03:53:12;93169.44;;;6.67;100.00
24610;BME280;12758;47.890;11.694;2023-04-02T03:55:39;93176.28;;;6.56;100.00
24610;BME280;12758;47.890;11.694;2023-04-02T03:58:12;93179.72;;;6.82;100.00
24610;BME280;12758;47.890;11.694;2023-04-02T04:00:42;93178.16;;;6.64;100.00
24610;BME280;12758;47.890;11.694;2023-04-02T04:03:17;93182.06;;;6.84;100.00
24610;BME280;12758;47.890;11.694;2023-04-02T04:05:47;93183.47;;;6.98;100.00
24610;BME280;12758;47.890;11.694;2023-04-02T04:08:18;93187.97;;;6.77;100.00
24610;BME280;12758;47.890;11.694;2023-04-02T04:10:49;93187.97;;;6.77;100.00
24610;BME280;12758;47.890;11.694;2023-04-02T04:13:21;93190.69;;;6.68;100.00
24610;BME280;12758;47.890;11.694;2023-04-02T04:15:54;93194.50;;;6.59;100.00
24610;BME280;12758;47.890;11.694;2023-04-02T04:18:31;93195.59;;;6.58;100.00
24610;BME280;12758;47.890;11.694;2023-04-02T04:21:03;93199.13;;;6.49;100.00
24610;BME280;12758;47.890;11.694;2023-04-02T04:23:35;93203.56;;;6.28;100.00
24610;BME280;12758;47.890;11.694;2023-04-02T04:26:05;93209.88;;;6.15;100.00
24610;BME280;12758;47.890;11.694;2023-04-02T04:28:39;93215.13;;;6.46;100.00
24610;BME280;12758;47.890;11.694;2023-04-02T04:31:13;93219.41;;;6.38;100.00
24610;BME280;12758;47.890;11.694;2023-04-02T04:33:47;93216.25;;;6.36;100.00
24610;BME280;12758;47.890;11.694;2023-04-02T04:36:19;93218.16;;;6.27;100.00
24610;BME280;12758;47.890;11.694;2023-04-02T04:38:56;93229.88;;;6.14;100.00
24610;BME280;12758;47.890;11.694;2023-04-02T04:41:26;93228.25;;;6.13;100.00
24610;BME280;12758;47.890;11.694;2023-04-02T04:43:59;93231.63;;;6.27;100.00
24610;BME280;12758;47.890;11.694;2023-04-02T04:46:31;93234.13;;;6.06;100.00
24610;BME280;12758;47.890;11.694;2023-04-02T04:49:06;93238.88;;;6.09;100.00
24610;BME280;12758;47.890;11.694;2023-04-02T04:51:36;93238.88;;;6.00;100.00
24610;BME280;12758;47.890;11.694;2023-04-02T04:54:09;93246.66;;;6.11;100.00
24610;BME280;12758;47.890;11.694;2023-04-02T04:56:40;93236.84;;;6.15;100.00
24610;BME280;12758;47.890;11.694;2023-04-02T04:59:14;93246.03;;;6.31;100.00
24610;BME280;12758;47.890;11.694;2023-04-02T05:01:45;93243.31;;;6.22;100.00
24610;BME280;12758;47.890;11.694;2023-04-02T05:04:18;93239.53;;;6.23;100.00
24610;BME280;12758;47.890;11.694;2023-04-02T05:06:50;93253.50;;;5.77;100.00
24610;BME280;12758;47.890;11.694;2023-04-02T05:09:22;93259.41;;;5.79;100.00
24610;BME280;12758;47.890;11.694;2023-04-02T05:11:55;93247.22;;;5.90;100.00
24610;BME280;12758;47.890;11.694;2023-04-02T05:14:28;93257.97;;;5.90;100.00
24610;BME280;12758;47.890;11.694;2023-04-02T05:17:00;93254.47;;;5.81;100.00
24610;BME280;12758;47.890;11.694;2023-04-02T05:19:35;93268.91;;;5.85;100.00
24610;BME280;12758;47.890;11.694;2023-04-02T05:22:13;93263.94;;;5.70;100.00
24610;BME280;12758;47.890;11.694;2023-04-02T05:25:01;93263.47;;;5.68;100.00
24610;BME280;12758;47.890;11.694;2023-04-02T05:27:40;93264.28;;;5.77;100.00
24610;BME280;12758;47.890;11.694;2023-04-02T05:30:13;93272.41;;;5.86;100.00
24610;BME280;12758;47.890;11.694;2023-04-02T05:32:45;93288.22;;;5.78;100.00
24610;BME280;12758;47.890;11.694;2023-04-02T05:35:18;93283.47;;;5.84;100.00
24610;BME280;12758;47.890;11.694;2023-04-02T05:37:48;93285.00;;;6.07;100.00
24610;BME280;12758;47.890;11.694;2023-04-02T05:40:19;93289.47;;;6.21;100.00
24610;BME280;12758;47.890;11.694;2023-04-02T05:42:49;93299.16;;;6.30;100.00
24610;BME280;12758;47.890;11.694;2023-04-02T05:45:26;93298.69;;;6.37;100.00
24610;BME280;12758;47.890;11.694;2023-04-02T05:47:57;93297.91;;;6.37;100.00
24610;BME280;12758;47.890;11.694;2023-04-02T05:50:28;93305.63;;;6.21;100.00
24610;BME280;12758;47.890;11.694;2023-04-02T05:53:01;93298.66;;;6.20;100.00
24610;BME280;12758;47.890;11.694;2023-04-02T05:55:34;93303.75;;;6.30;100.00
24610;BME280;12758;47.890;11.694;2023-04-02T05:58:07;93301.50;;;6.15;100.00
24610;BME280;12758;47.890;11.694;2023-04-02T06:00:48;93297.53;;;6.12;100.00
24610;BME280;12758;47.890;11.694;2023-04-02T06:03:23;93307.97;;;6.05;100.00
24610;BME280;12758;47.890;11.694;2023-04-02T06:05:52;93317.44;;;5.94;100.00
24610;BME280;12758;47.890;11.694;2023-04-02T06:08:25;93324.84;;;5.88;100.00
24610;BME280;12758;47.890;11.694;2023-04-02T06:10:54;93330.22;;;5.88;100.00
24610;BME280;12758;47.890;11.694;2023-04-02T06:13:25;93329.03;;;5.94;100.00
24610;BME280;12758;47.890;11.694;2023-04-02T06:15:52;93328.09;;;6.07;100.00
24610;BME280;12758;47.890;11.694;2023-04-02T06:18:22;93323.22;;;6.18;100.00
24610;BME280;12758;47.890;11.694;2023-04-02T06:20:49;93327.16;;;6.12;100.00
24610;BME280;12758;47.890;11.694;2023-04-02T06:23:22;93332.50;;;6.03;100.00
24610;BME280;12758;47.890;11.694;2023-04-02T06:25:50;93336.94;;;5.99;100.00
24610;BME280;12758;47.890;11.694;2023-04-02T06:28:24;93345.22;;;6.12;100.00
24610;BME280;12758;47.890;11.694;2023-04-02T06:30:53;93347.25;;;6.06;100.00
24610;BME280;12758;47.890;11.694;2023-04-02T06:33:24;93354.06;;;6.03;100.00
24610;BME280;12758;47.890;11.694;2023-04-02T06:35:50;93348.41;;;6.14;100.00
24610;BME280;12758;47.890;11.694;2023-04-02T06:38:22;93350.16;;;6.18;100.00
24610;BME280;12758;47.890;11.694;2023-04-02T06:40:55;93350.94;;;6.19;100.00
24610;BME280;12758;47.890;11.694;2023-04-02T06:43:25;93352.06;;;6.18;100.00
24610;BME280;12758;47.890;11.694;2023-04-02T06:45:58;93357.00;;;6.24;100.00
24610;BME280;12758;47.890;11.694;2023-04-02T06:48:29;93359.34;;;6.26;100.00
24610;BME280;12758;47.890;11.694;2023-04-02T06:51:01;93364.94;;;6.38;100.00
24610;BME280;12758;47.890;11.694;2023-04-02T06:53:32;93356.41;;;6.36;100.00
24610;BME280;12758;47.890;11.694;2023-04-02T06:56:03;93370.00;;;6.31;100.00
24610;BME280;12758;47.890;11.694;2023-04-02T06:58:32;93368.28;;;6.44;100.00
24610;BME280;12758;47.890;11.694;2023-04-02T07:01:01;93364.94;;;6.38;100.00
24610;BME280;12758;47.890;11.694;2023-04-02T07:03:28;93368.16;;;6.58;100.00
24610;BME280;12758;47.890;11.694;2023-04-02T07:05:58;93375.25;;;6.45;100.00
24610;BME280;12758;47.890;11.694;2023-04-02T07:08:26;93377.34;;;6.48;100.00
24610;BME280;12758;47.890;11.694;2023-04-02T07:10:56;93378.94;;;6.49;100.00
24610;BME280;12758;47.890;11.694;2023-04-02T07:13:22;93378.63;;;6.50;100.00
24610;BME280;12758;47.890;11.694;2023-04-02T07:15:53;93398.59;;;6.49;100.00
24610;BME280;12758;47.890;11.694;2023-04-02T07:18:24;93378.13;;;6.48;100.00
24610;BME280;12758;47.890;11.694;2023-04-02T07:20:54;93389.09;;;6.61;100.00
24610;BME280;12758;47.890;11.694;2023-04-02T07:23:20;93390.84;;;6.74;100.00
24610;BME280;12758;47.890;11.694;2023-04-02T07:25:50;93387.88;;;6.84;100.00
24610;BME280;12758;47.890;11.694;2023-04-02T07:28:17;93389.47;;;6.85;100.00
24610;BME280;12758;47.890;11.694;2023-04-02T07:30:47;93384.53;;;6.79;100.00
24610;BME280;12758;47.890;11.694;2023-04-02T07:33:13;93396.13;;;6.79;100.00
24610;BME280;12758;47.890;11.694;2023-04-02T07:35:44;93395.97;;;6.75;100.00
24610;BME280;12758;47.890;11.694;2023-04-02T07:38:10;93406.59;;;6.72;100.00
24610;BME280;12758;47.890;11.694;2023-04-02T07:40:39;93401.50;;;6.79;100.00
24610;BME280;12758;47.890;11.694;2023-04-02T07:43:05;93407.84;;;6.83;100.00
24610;BME280;12758;47.890;11.694;2023-04-02T07:45:35;93404.53;;;6.86;100.00
24610;BME280;12758;47.890;11.694;2023-04-02T07:48:04;93418.03;;;6.95;100.00
24610;BME280;12758;47.890;11.694;2023-04-02T07:50:34;93417.38;;;6.89;100.00
24610;BME280;12758;47.890;11.694;2023-04-02T07:53:03;93424.72;;;6.97;100.00
24610;BME280;12758;47.890;11.694;2023-04-02T07:55:32;93423.75;;;6.93;100.00
24610;BME280;12758;47.890;11.694;2023-04-02T07:57:58;93431.06;;;7.02;100.00
24610;BME280;12758;47.890;11.694;2023-04-02T08:00:29;93430.44;;;7.05;100.00
24610;BME280;12758;47.890;11.694;2023-04-02T08:02:59;93441.22;;;7.05;100.00
24610;BME280;12758;47.890;11.694;2023-04-02T08:05:25;93437.25;;;7.11;100.00
24610;BME280;12758;47.890;11.694;2023-04-02T08:07:55;93452.19;;;7.17;100.00
24610;BME280;12758;47.890;11.694;2023-04-02T08:10:22;93438.69;;;7.17;100.00
24610;BME280;12758;47.890;11.694;2023-04-02T08:12:51;93442.66;;;7.19;100.00
24610;BME280;12758;47.890;11.694;2023-04-02T08:15:17;93451.38;;;7.25;100.00
24610;BME280;12758;47.890;11.694;2023-04-02T08:17:46;93449.00;;;7.23;100.00
24610;BME280;12758;47.890;11.694;2023-04-02T08:20:14;93455.50;;;7.31;100.00
24610;BME280;12758;47.890;11.694;2023-04-02T08:22:44;93453.94;;;7.30;100.00
24610;BME280;12758;47.890;11.694;2023-04-02T08:25:10;93462.84;;;7.39;100.00
24610;BME280;12758;47.890;11.694;2023-04-02T08:27:39;93462.84;;;7.39;100.00
24610;BME280;12758;47.890;11.694;2023-04-02T08:30:07;93464.91;;;7.42;100.00
24610;BME280;12758;47.890;11.694;2023-04-02T08:32:37;93464.13;;;7.42;100.00
24610;BME280;12758;47.890;11.694;2023-04-02T08:35:05;93463.16;;;7.46;100.00
24610;BME280;12758;47.890;11.694;2023-04-02T08:37:34;93463.59;;;7.57;100.00
24610;BME280;12758;47.890;11.694;2023-04-02T08:40:00;93463.13;;;7.64;100.00
24610;BME280;12758;47.890;11.694;2023-04-02T08:42:32;93459.97;;;7.62;100.00
24610;BME280;12758;47.890;11.694;2023-04-02T08:45:04;93468.53;;;7.64;100.00
24610;BME280;12758;47.890;11.694;2023-04-02T08:47:38;93471.72;;;7.57;100.00
24610;BME280;12758;47.890;11.694;2023-04-02T08:50:11;93468.22;;;7.65;100.00
24610;BME280;12758;47.890;11.694;2023-04-02T08:52:43;93471.38;;;7.76;100.00
24610;BME280;12758;47.890;11.694;2023-04-02T08:55:17;93477.41;;;7.82;100.00
24610;BME280;12758;47.890;11.694;2023-04-02T08:57:50;93470.44;;;7.72;100.00
24610;BME280;12758;47.890;11.694;2023-04-02T09:00:25;93475.22;;;7.75;100.00
24610;BME280;12758;47.890;11.694;2023-04-02T09:02:56;93475.53;;;7.65;100.00
24610;BME280;12758;47.890;11.694;2023-04-02T09:05:25;93475.22;;;7.66;100.00
24610;BME280;12758;47.890;11.694;2023-04-02T09:07:58;93485.72;;;7.68;100.00
24610;BME280;12758;47.890;11.694;2023-04-02T09:10:33;93483.47;;;7.70;100.00
24610;BME280;12758;47.890;11.694;2023-04-02T09:13:05;93485.88;;;7.80;100.00
24610;BME280;12758;47.890;11.694;2023-04-02T09:15:39;93481.56;;;7.79;100.00
24610;BME280;12758;47.890;11.694;2023-04-02T09:18:12;93496.78;;;7.92;100.00
24610;BME280;12758;47.890;11.694;2023-04-02T09:20:38;93489.81;;;7.91;100.00
24610;BME280;12758;47.890;11.694;2023-04-02T09:23:10;93494.91;;;7.84;100.00
24610;BME280;12758;47.890;11.694;2023-04-02T09:25:42;93497.75;;;7.88;100.00
24610;BME280;12758;47.890;11.694;2023-04-02T09:28:11;93497.75;;;7.97;100.00
24610;BME280;12758;47.890;11.694;2023-04-02T09:30:51;93493.59;;;8.08;100.00
24610;BME280;12758;47.890;11.694;2023-04-02T09:33:42;93493.59;;;8.08;100.00
24610;BME280;12758;47.890;11.694;2023-04-02T09:36:17;93506.31;;;8.16;100.00
24610;BME280;12758;47.890;11.694;2023-04-02T09:39:00;93512.06;;;8.06;100.00
24610;BME280;12758;47.890;11.694;2023-04-02T09:41:28;93513.00;;;7.92;100.00
24610;BME280;12758;47.890;11.694;2023-04-02T09:44:12;93511.56;;;7.95;100.00
24610;BME280;12758;47.890;11.694;2023-04-02T09:46:49;93516.19;;;7.94;100.00
24610;BME280;12758;47.890;11.694;2023-04-02T09:49:22;93517.78;;;7.96;100.00
24610;BME280;12758;47.890;11.694;2023-04-02T09:52:07;93519.50;;;8.09;100.00
24610;BME280;12758;47.890;11.694;2023-04-02T09:54:37;93522.88;;;8.06;100.00
24610;BME280;12758;47.890;11.694;2023-04-02T09:57:17;93515.41;;;8.03;100.00
24610;BME280;12758;47.890;11.694;2023-04-02T10:00:08;93521.56;;;8.12;100.00
24610;BME280;12758;47.890;11.694;2023-04-02T10:02:36;93526.31;;;8.15;100.00
24610;BME280;12758;47.890;11.694;2023-04-02T10:05:09;93514.88;;;8.18;100.00
24610;BME280;12758;47.890;11.694;2023-04-02T10:07:41;93529.47;;;8.34;100.00
24610;BME280;12758;47.890;11.694;2023-04-02T10:10:17;93536.31;;;8.40;100.00
24610;BME280;12758;47.890;11.694;2023-04-02T10:12:46;93527.75;;;8.38;100.00
24610;BME280;12758;47.890;11.694;2023-04-02T10:15:19;93531.88;;;8.45;100.00
24610;BME280;12758;47.890;11.694;2023-04-02T10:17:46;93534.41;;;8.50;100.00
24610;BME280;12758;47.890;11.694;2023-04-02T10:20:21;93524.06;;;8.52;100.00
24610;BME280;12758;47.890;11.694;2023-04-02T10:22:50;93532.59;;;8.62;100.00
24610;BME280;12758;47.890;11.694;2023-04-02T10:25:20;93538.84;;;8.54;100.00
24610;BME280;12758;47.890;11.694;2023-04-02T10:27:50;93534.88;;;8.52;100.00
24610;BME280;12758;47.890;11.694;2023-04-02T10:30:22;93540.16;;;8.39;100.00
24610;BME280;12758;47.890;11.694;2023-04-02T10:32:50;93532.97;;;8.44;100.00
24610;BME280;12758;47.890;11.694;2023-04-02T10:35:31;93537.75;;;8.47;100.00
24610;BME280;12758;47.890;11.694;2023-04-02T10:38:08;93549.69;;;8.54;100.00
24610;BME280;12758;47.890;11.694;2023-04-02T10:40:45;93546.81;;;8.51;100.00
24610;BME280;12758;47.890;11.694;2023-04-02T10:43:38;93543.44;;;8.54;100.00
24610;BME280;12758;47.890;11.694;2023-04-02T10:46:13;93549.69;;;8.46;100.00
24610;BME280;12758;47.890;11.694;2023-04-02T10:48:48;93558.13;;;8.35;100.00
24610;BME280;12758;47.890;11.694;2023-04-02T10:51:30;93558.56;;;8.37;100.00
24610;BME280;12758;47.890;11.694;2023-04-02T10:54:02;93561.16;;;8.51;100.00
24610;BME280;12758;47.890;11.694;2023-04-02T10:56:34;93554.59;;;8.61;100.00
24610;BME280;12758;47.890;11.694;2023-04-02T10:59:03;93566.19;;;8.70;100.00
24610;BME280;12758;47.890;11.694;2023-04-02T11:01:33;93555.81;;;8.72;100.00
24610;BME280;12758;47.890;11.694;2023-04-02T11:04:04;93560.63;;;9.05;100.00
24610;BME280;12758;47.890;11.694;2023-04-02T11:06:37;93562.13;;;8.94;100.00
24610;BME280;12758;47.890;11.694;2023-04-02T11:09:09;93562.03;;;9.11;100.00
24610;BME280;12758;47.890;11.694;2023-04-02T11:11:44;93560.47;;;9.01;100.00
24610;BME280;12758;47.890;11.694;2023-04-02T11:14:12;93563.13;;;9.19;100.00
24610;BME280;12758;47.890;11.694;2023-04-02T11:16:43;93566.13;;;9.17;100.00
24610;BME280;12758;47.890;11.694;2023-04-02T11:19:24;93555.97;;;9.14;100.00
24610;BME280;12758;47.890;11.694;2023-04-02T11:21:54;93561.31;;;9.31;100.00
24610;BME280;12758;47.890;11.694;2023-04-02T11:24:35;93562.13;;;9.23;100.00
24610;BME280;12758;47.890;11.694;2023-04-02T11:27:17;93559.94;;;9.17;100.00
24610;BME280;12758;47.890;11.694;2023-04-02T11:29:46;93574.47;;;9.12;100.00
24610;BME280;12758;47.890;11.694;2023-04-02T11:32:25;93571.56;;;9.17;100.00
24610;BME280;12758;47.890;11.694;2023-04-02T11:35:26;93585.81;;;8.97;100.00
24610;BME280;12758;47.890;11.694;2023-04-02T11:40:48;93594.88;;;8.19;100.00
24610;BME280;12758;47.890;11.694;2023-04-02T11:43:50;93587.72;;;8.23;100.00
24610;BME280;12758;47.890;11.694;2023-04-02T11:46:40;93594.41;;;8.17;100.00
24610;BME280;12758;47.890;11.694;2023-04-02T11:49:35;93598.38;;;8.11;100.00
24610;BME280;12758;47.890;11.694;2023-04-02T11:52:22;93590.91;;;8.25;100.00
24610;BME280;12758;47.890;11.694;2023-04-02T11:55:00;93587.88;;;8.18;100.00
24610;BME280;12758;47.890;11.694;2023-04-02T11:57:45;93593.28;;;8.44;100.00
24610;BME280;12758;47.890;11.694;2023-04-02T12:00:29;93596.94;;;8.39;100.00
24610;BME280;12758;47.890;11.694;2023-04-02T12:03:13;93590.91;;;8.43;100.00
24610;BME280;12758;47.890;11.694;2023-04-02T12:05:46;93597.56;;;8.54;100.00
24610;BME280;12758;47.890;11.694;2023-04-02T12:08:25;93599.75;;;8.69;100.00
24610;BME280;12758;47.890;11.694;2023-04-02T12:10:56;93591.47;;;8.74;100.00
24610;BME280;12758;47.890;11.694;2023-04-02T12:13:51;93593.34;;;8.82;100.00
24610;BME280;12758;47.890;11.694;2023-04-02T12:16:22;93598.34;;;9.10;100.00
24610;BME280;12758;47.890;11.694;2023-04-02T12:18:52;93589.94;;;9.03;100.00
24610;BME280;12758;47.890;11.694;2023-04-02T12:21:21;93590.59;;;9.38;100.00
24610;BME280;12758;47.890;11.694;2023-04-02T12:23:47;93596.78;;;9.39;100.00
24610;BME280;12758;47.890;11.694;2023-04-02T12:26:37;93587.09;;;9.38;100.00
24610;BME280;12758;47.890;11.694;2023-04-02T12:29:23;93592.13;;;9.48;100.00
24610;BME280;12758;47.890;11.694;2023-04-02T12:31:54;93587.16;;;9.50;100.00
24610;BME280;12758;47.890;11.694;2023-04-02T12:34:22;93591.25;;;9.86;100.00
24610;BME280;12758;47.890;11.694;2023-04-02T12:36:53;93592.56;;;10.21;100.00
24610;BME280;12758;47.890;11.694;2023-04-02T12:39:22;93591.16;;;9.73;100.00
24610;BME280;12758;47.890;11.694;2023-04-02T12:41:48;93600.88;;;9.74;100.00
24610;BME280;12758;47.890;11.694;2023-04-02T12:44:19;93596.63;;;9.65;100.00
24610;BME280;12758;47.890;11.694;2023-04-02T12:46:46;93604.16;;;9.59;100.00
24610;BME280;12758;47.890;11.694;2023-04-02T12:49:24;93613.16;;;9.51;100.00
24610;BME280;12758;47.890;11.694;2023-04-02T12:51:53;93611.16;;;9.30;100.00
24610;BME280;12758;47.890;11.694;2023-04-02T12:54:19;93606.22;;;9.32;100.00
24610;BME280;12758;47.890;11.694;2023-04-02T12:56:46;93613.22;;;9.33;100.00
24610;BME280;12758;47.890;11.694;2023-04-02T12:59:29;93604.25;;;9.42;100.00
24610;BME280;12758;47.890;11.694;2023-04-02T13:01:57;93605.16;;;9.54;100.00
24610;BME280;12758;47.890;11.694;2023-04-02T13:04:27;93598.75;;;9.59;100.00
24610;BME280;12758;47.890;11.694;2023-04-02T13:06:53;93603.41;;;9.79;100.00
24610;BME280;12758;47.890;11.694;2023-04-02T13:09:29;93598.50;;;9.73;100.00
24610;BME280;12758;47.890;11.694;2023-04-02T13:11:55;93595.47;;;9.74;100.00
24610;BME280;12758;47.890;11.694;2023-04-02T13:14:25;93595.06;;;9.85;100.00
24610;BME280;12758;47.890;11.694;2023-04-02T13:16:51;93597.25;;;9.91;100.00
24610;BME280;12758;47.890;11.694;2023-04-02T13:19:29;93594.28;;;9.84;100.00